Time;durP1;ratioP1;P1;durP2;ratioP2;P2;SDS_P1;SDS_P2;PMS_P1;PMS_P2;Temp;Humidity;BMP_temperature;BMP_pressure;BME280_temperature;BME280_humidity;BME280_pressure;Samples;Min_cycle;Max_cycle;Signal;HPM_P1;HPM_P2
2024/03/27 00:02:18;;;;;;;16.37;8.50;;;7.30;99.90;;;;;;5076622;28;20683;-72
2024/03/27 00:05:05;;;;;;;16.77;8.87;;;7.30;99.90;;;;;;5077661;28;20702;-73
2024/03/27 00:07:52;;;;;;;17.60;8.57;;;7.30;99.90;;;;;;5062285;28;20242;-73
2024/03/27 00:10:38;;;;;;;14.43;8.30;;;7.30;99.90;;;;;;5063293;28;20656;-72
2024/03/27 00:13:24;;;;;;;14.60;8.63;;;7.20;99.90;;;;;;5076524;28;20243;-72
2024/03/27 00:16:11;;;;;;;19.77;8.80;;;7.20;99.90;;;;;;5077767;28;20199;-73
2024/03/27 00:18:57;;;;;;;16.13;8.13;;;7.10;99.90;;;;;;5076422;28;20213;-73
2024/03/27 00:21:44;;;;;;;16.13;8.70;;;7.10;99.90;;;;;;5077101;28;20200;-72
2024/03/27 00:24:31;;;;;;;16.07;8.33;;;7.10;99.90;;;;;;5063218;28;20192;-72
2024/03/27 00:27:17;;;;;;;16.10;7.97;;;7.10;99.90;;;;;;5075305;28;20193;-73
2024/03/27 00:30:05;;;;;;;15.67;8.37;;;7.10;99.90;;;;;;5077056;28;20691;-73
2024/03/27 00:32:51;;;;;;;15.93;8.50;;;7.00;99.90;;;;;;5075351;28;20766;-72
2024/03/27 00:35:37;;;;;;;15.00;8.23;;;7.10;99.90;;;;;;5063062;28;20695;-73
2024/03/27 00:38:25;;;;;;;20.23;8.80;;;7.10;99.90;;;;;;5076932;28;20700;-72
2024/03/27 00:41:12;;;;;;;14.50;8.30;;;7.00;99.90;;;;;;5076969;28;20199;-72
2024/03/27 00:43:59;;;;;;;15.83;8.17;;;7.00;99.90;;;;;;5076361;28;20302;-73
2024/03/27 00:46:46;;;;;;;15.77;8.30;;;6.90;99.90;;;;;;5075977;28;20186;-72
2024/03/27 00:49:32;;;;;;;13.63;8.00;;;6.90;99.90;;;;;;5075523;28;20610;-72
2024/03/27 00:52:19;;;;;;;14.20;7.90;;;6.90;99.90;;;;;;5062515;28;20544;-73
2024/03/27 00:55:05;;;;;;;15.73;8.23;;;6.90;99.90;;;;;;5075413;28;20245;-73
2024/03/27 00:57:52;;;;;;;14.60;7.57;;;6.80;99.90;;;;;;5062851;28;20668;-73
2024/03/27 01:00:38;;;;;;;14.40;8.20;;;6.80;99.90;;;;;;5076783;28;20563;-73
2024/03/27 01:03:25;;;;;;;13.53;8.10;;;6.80;99.90;;;;;;5076698;28;20657;-73
2024/03/27 01:06:11;;;;;;;14.87;8.10;;;6.80;99.90;;;;;;5062866;28;20200;-73
2024/03/27 01:08:57;;;;;;;13.70;7.43;;;6.80;99.90;;;;;;5075800;28;20237;-73
2024/03/27 01:11:44;;;;;;;15.03;7.93;;;6.70;99.90;;;;;;5078363;28;20199;-74
2024/03/27 01:14:30;;;;;;;16.90;7.63;;;6.70;99.90;;;;;;5079634;28;20227;-73
2024/03/27 01:17:17;;;;;;;12.80;7.60;;;6.70;99.90;;;;;;5081298;28;20195;-73
2024/03/27 01:20:05;;;;;;;13.43;7.33;;;6.70;99.90;;;;;;5079570;28;20212;-73
2024/03/27 01:22:52;;;;;;;16.23;8.30;;;6.60;99.90;;;;;;5079136;28;20201;-73
2024/03/27 01:25:38;;;;;;;14.03;7.37;;;6.60;99.90;;;;;;5078839;28;20279;-73
2024/03/27 01:28:25;;;;;;;16.33;8.40;;;6.60;99.90;;;;;;5080142;28;20203;-73
2024/03/27 01:31:11;;;;;;;12.23;7.33;;;6.50;99.90;;;;;;5080547;28;20196;-73
2024/03/27 01:33:57;;;;;;;12.93;7.53;;;6.50;99.90;;;;;;5079176;28;20232;-73
2024/03/27 01:36:44;;;;;;;15.00;7.73;;;6.50;99.90;;;;;;5067059;28;20228;-73
2024/03/27 01:39:30;;;;;;;15.53;7.93;;;6.40;99.90;;;;;;5093312;28;20201;-73
2024/03/27 01:42:17;;;;;;;15.37;7.83;;;6.40;99.90;;;;;;5079314;28;20560;-72
2024/03/27 01:45:03;;;;;;;13.77;7.60;;;6.50;99.90;;;;;;5079176;28;20203;-73
2024/03/27 01:47:50;;;;;;;13.80;7.20;;;6.40;99.90;;;;;;5078742;28;20561;-73
2024/03/27 01:50:36;;;;;;;14.87;7.30;;;6.40;99.90;;;;;;5065249;28;20218;-73
2024/03/27 01:53:23;;;;;;;15.10;7.40;;;6.40;99.90;;;;;;5066313;28;20252;-74
2024/03/27 01:56:10;;;;;;;12.87;7.27;;;6.40;99.90;;;;;;5064930;28;20202;-74
2024/03/27 01:58:57;;;;;;;15.73;7.10;;;6.30;99.90;;;;;;5077843;28;20717;-74
2024/03/27 02:01:44;;;;;;;13.30;7.47;;;6.30;99.90;;;;;;5066245;28;20199;-74
2024/03/27 02:04:30;;;;;;;13.50;7.30;;;6.30;99.90;;;;;;5076996;28;20211;-74
2024/03/27 02:07:17;;;;;;;14.40;7.20;;;6.30;99.90;;;;;;5077736;28;20195;-72
2024/03/27 02:10:03;;;;;;;14.43;7.90;;;6.30;99.90;;;;;;5078987;28;20599;-72
2024/03/27 02:12:50;;;;;;;17.30;7.10;;;6.30;99.90;;;;;;5078712;28;20214;-72
2024/03/27 02:15:37;;;;;;;13.47;7.20;;;6.40;99.90;;;;;;5077648;28;20208;-73
2024/03/27 02:18:23;;;;;;;13.33;7.60;;;6.30;99.90;;;;;;5079821;28;20196;-73
2024/03/27 02:21:12;;;;;;;13.60;7.07;;;6.30;99.90;;;;;;5077333;28;20184;-73
2024/03/27 02:24:05;;;;;;;11.90;6.90;;;6.30;99.90;;;;;;5076823;28;20656;-73
2024/03/27 02:26:52;;;;;;;13.47;7.57;;;6.30;99.90;;;;;;5064792;28;20422;-74
2024/03/27 02:29:38;;;;;;;14.87;7.07;;;6.30;99.90;;;;;;5078222;28;20655;-74
2024/03/27 02:32:25;;;;;;;12.70;6.80;;;6.40;99.90;;;;;;5065446;28;20203;-74
2024/03/27 02:35:11;;;;;;;15.57;8.03;;;6.40;99.90;;;;;;5077363;28;20592;-74
2024/03/27 02:37:58;;;;;;;12.03;6.67;;;6.40;99.90;;;;;;5077904;28;20255;-73
2024/03/27 02:40:44;;;;;;;14.17;6.77;;;6.40;99.90;;;;;;5077427;28;20196;-73
2024/03/27 02:43:31;;;;;;;15.87;7.20;;;6.50;99.90;;;;;;5077988;28;20667;-74
2024/03/27 02:46:17;;;;;;;12.80;6.63;;;6.50;99.90;;;;;;5077864;28;20197;-74
2024/03/27 02:49:04;;;;;;;12.60;6.87;;;6.50;99.90;;;;;;5076781;28;20240;-74
2024/03/27 02:51:50;;;;;;;14.63;7.37;;;6.50;99.90;;;;;;5063369;28;20198;-74
2024/03/27 02:54:37;;;;;;;11.60;6.97;;;6.50;99.90;;;;;;5077186;28;20250;-73
2024/03/27 02:57:23;;;;;;;10.73;6.50;;;6.50;99.90;;;;;;5077762;28;20192;-74
2024/03/27 03:00:10;;;;;;;12.63;6.40;;;6.50;99.90;;;;;;5078284;28;20197;-74
2024/03/27 03:02:57;;;;;;;11.30;6.70;;;6.40;99.90;;;;;;5065018;28;20192;-74
2024/03/27 03:05:44;;;;;;;10.13;6.20;;;6.40;99.90;;;;;;5077592;28;20223;-74
2024/03/27 03:08:31;;;;;;;13.37;6.90;;;6.40;99.90;;;;;;5075844;28;20193;-73
2024/03/27 03:11:17;;;;;;;11.37;6.37;;;6.40;99.90;;;;;;5064817;28;20191;-73
2024/03/27 03:14:03;;;;;;;11.83;6.93;;;6.30;99.90;;;;;;5076784;28;20227;-74
2024/03/27 03:16:50;;;;;;;10.20;6.30;;;6.30;99.90;;;;;;5077990;28;20193;-74
2024/03/27 03:19:37;;;;;;;10.87;6.00;;;6.30;99.90;;;;;;5063958;28;20216;-74
2024/03/27 03:22:23;;;;;;;15.10;6.70;;;6.30;99.90;;;;;;5076011;28;20710;-73
2024/03/27 03:25:10;;;;;;;12.47;6.93;;;6.30;99.90;;;;;;5077219;28;20215;-73
2024/03/27 03:27:56;;;;;;;10.63;6.07;;;6.30;99.90;;;;;;5075450;28;20196;-73
2024/03/27 03:30:43;;;;;;;9.70;6.17;;;6.30;99.90;;;;;;5077023;28;20200;-74
2024/03/27 03:33:29;;;;;;;10.03;6.20;;;6.30;99.90;;;;;;5062246;28;20203;-73
2024/03/27 03:36:16;;;;;;;11.13;5.80;;;6.30;99.90;;;;;;5076701;28;20197;-73
2024/03/27 03:39:02;;;;;;;9.00;5.67;;;6.20;99.90;;;;;;5077564;28;20191;-74
2024/03/27 03:41:49;;;;;;;9.57;5.97;;;6.20;99.90;;;;;;5076989;28;20685;-74
2024/03/27 03:44:35;;;;;;;12.00;6.43;;;6.20;99.90;;;;;;5063707;28;20207;-73
2024/03/27 03:47:22;;;;;;;11.70;6.37;;;6.10;99.90;;;;;;5076614;28;20677;-75
2024/03/27 03:50:09;;;;;;;13.90;6.17;;;6.10;99.90;;;;;;5077438;28;20216;-73
2024/03/27 03:52:55;;;;;;;10.93;6.10;;;6.10;99.90;;;;;;5076207;28;20191;-74
2024/03/27 03:55:41;;;;;;;10.80;6.57;;;6.10;99.90;;;;;;5078028;28;20214;-73
2024/03/27 03:58:27;;;;;;;10.63;5.90;;;6.10;99.90;;;;;;5076873;28;20204;-73
2024/03/27 04:01:14;;;;;;;12.17;5.80;;;6.10;99.90;;;;;;5077642;28;20192;-73
2024/03/27 04:04:01;;;;;;;10.50;5.93;;;6.10;99.90;;;;;;5075753;28;20213;-73
2024/03/27 04:06:47;;;;;;;10.83;6.03;;;6.00;99.90;;;;;;5076058;28;20277;-74
2024/03/27 04:09:34;;;;;;;14.07;6.23;;;6.00;99.90;;;;;;5075892;28;20196;-74
2024/03/27 04:12:21;;;;;;;11.17;6.10;;;6.00;99.90;;;;;;5062212;28;20196;-74
2024/03/27 04:15:08;;;;;;;10.67;6.07;;;6.00;99.90;;;;;;5076489;28;20248;-73
2024/03/27 04:17:56;;;;;;;10.13;6.00;;;6.00;99.90;;;;;;5075650;28;20189;-73
2024/03/27 04:20:42;;;;;;;10.40;6.00;;;6.00;99.90;;;;;;5063406;28;20212;-74
2024/03/27 04:23:29;;;;;;;9.07;5.70;;;6.00;99.90;;;;;;5075505;28;20203;-74
2024/03/27 04:26:16;;;;;;;9.93;6.13;;;6.00;99.90;;;;;;5075103;28;20197;-74
2024/03/27 04:29:03;;;;;;;13.77;5.70;;;6.00;99.90;;;;;;5075744;28;20574;-73
2024/03/27 04:31:49;;;;;;;10.93;6.13;;;6.00;99.90;;;;;;5075935;28;20676;-73
2024/03/27 04:34:36;;;;;;;11.70;6.10;;;6.00;99.90;;;;;;5076954;28;20237;-73
2024/03/27 04:37:22;;;;;;;9.17;5.57;;;6.10;99.90;;;;;;5062328;28;20235;-74
2024/03/27 04:40:12;;;;;;;9.73;5.47;;;6.00;99.90;;;;;;5076533;28;20665;-74
2024/03/27 04:42:59;;;;;;;11.13;6.00;;;6.00;99.90;;;;;;5076373;28;20193;-74
2024/03/27 04:45:45;;;;;;;9.90;5.93;;;6.10;99.90;;;;;;5077224;28;20240;-75
2024/03/27 04:48:32;;;;;;;8.20;5.43;;;6.00;99.90;;;;;;5066159;28;20205;-74
2024/03/27 04:51:19;;;;;;;10.03;5.73;;;6.00;99.90;;;;;;5080115;28;20205;-73
2024/03/27 04:54:05;;;;;;;11.57;5.67;;;6.00;99.90;;;;;;5080641;28;20215;-73
2024/03/27 04:56:51;;;;;;;10.20;6.03;;;6.00;99.90;;;;;;5079406;28;20502;-73
2024/03/27 04:59:38;;;;;;;9.47;5.30;;;6.10;99.90;;;;;;5079873;28;20196;-73
2024/03/27 05:02:24;;;;;;;9.33;5.43;;;6.10;99.90;;;;;;5080549;28;20206;-74
2024/03/27 05:05:11;;;;;;;8.63;5.50;;;6.10;99.90;;;;;;5078951;28;20215;-73
2024/03/27 05:07:57;;;;;;;9.73;5.60;;;6.20;99.90;;;;;;5065994;28;20672;-73
2024/03/27 05:10:44;;;;;;;9.47;5.47;;;6.20;99.90;;;;;;5080500;28;20569;-73
2024/03/27 05:13:30;;;;;;;8.17;5.57;;;6.20;99.90;;;;;;5079126;28;20237;-73
2024/03/27 05:16:17;;;;;;;9.63;6.00;;;6.20;99.90;;;;;;5079807;28;20203;-73
2024/03/27 05:19:03;;;;;;;9.30;5.40;;;6.20;99.90;;;;;;5079010;28;20210;-73
2024/03/27 05:21:51;;;;;;;10.97;5.67;;;6.30;99.90;;;;;;5080348;28;20469;-73
2024/03/27 05:24:38;;;;;;;10.57;5.90;;;6.30;99.90;;;;;;5079691;28;20665;-73
2024/03/27 05:27:24;;;;;;;11.53;5.67;;;6.30;99.90;;;;;;5078846;28;20563;-73
2024/03/27 05:30:11;;;;;;;8.47;5.57;;;6.30;99.90;;;;;;5079395;28;20187;-73
2024/03/27 05:32:57;;;;;;;10.93;5.90;;;6.40;99.90;;;;;;5078425;28;20200;-73
2024/03/27 05:35:44;;;;;;;11.00;5.53;;;6.40;99.90;;;;;;5079820;28;20235;-73
2024/03/27 05:38:31;;;;;;;9.27;5.63;;;6.30;99.90;;;;;;5078841;28;20565;-74
2024/03/27 05:41:17;;;;;;;10.60;5.83;;;6.40;99.90;;;;;;5079957;28;20200;-74
2024/03/27 05:44:04;;;;;;;9.03;5.90;;;6.30;99.90;;;;;;5077534;28;20198;-74
2024/03/27 05:46:51;;;;;;;9.83;5.57;;;6.50;99.90;;;;;;5079340;28;20200;-73
2024/03/27 05:49:37;;;;;;;8.90;5.43;;;6.50;99.90;;;;;;5079082;28;20231;-73
2024/03/27 05:52:24;;;;;;;9.47;5.27;;;6.60;99.90;;;;;;5077743;28;20264;-73
2024/03/27 05:55:10;;;;;;;10.20;5.33;;;6.70;99.90;;;;;;5079037;28;20603;-73
2024/03/27 05:57:57;;;;;;;10.30;5.53;;;6.80;99.90;;;;;;5076529;28;20196;-74
2024/03/27 06:00:43;;;;;;;10.27;5.53;;;6.90;99.90;;;;;;5078260;28;20197;-73
2024/03/27 06:03:29;;;;;;;12.00;5.80;;;6.80;99.90;;;;;;5078735;28;20245;-73
2024/03/27 06:06:16;;;;;;;14.43;5.27;;;6.80;99.90;;;;;;5079376;28;20195;-73
2024/03/27 06:09:03;;;;;;;9.20;5.07;;;6.80;99.90;;;;;;5065476;28;20200;-73
2024/03/27 06:11:49;;;;;;;9.50;5.33;;;6.80;99.90;;;;;;5077590;28;20193;-73
2024/03/27 06:14:35;;;;;;;10.77;5.43;;;6.80;99.90;;;;;;5079188;28;20582;-73
2024/03/27 06:17:22;;;;;;;11.00;5.20;;;6.90;99.90;;;;;;5078668;28;20245;-73
2024/03/27 06:20:13;;;;;;;10.07;5.17;;;6.90;99.90;;;;;;5064002;28;20219;-73
2024/03/27 06:22:59;;;;;;;9.60;5.10;;;6.90;99.90;;;;;;5078373;28;20193;-73
2024/03/27 06:25:55;;;;;;;10.80;5.57;;;7.00;99.90;;;;;;5076893;28;20204;-73
2024/03/27 06:28:42;;;;;;;8.57;5.30;;;7.10;99.90;;;;;;5078313;28;20194;-73
2024/03/27 06:31:29;;;;;;;10.53;5.53;;;7.10;99.90;;;;;;5079366;28;20193;-73
2024/03/27 06:34:15;;;;;;;9.60;5.30;;;7.30;99.90;;;;;;5078109;28;20228;-73
2024/03/27 06:37:02;;;;;;;9.23;5.23;;;7.30;99.90;;;;;;5077056;28;20235;-73
2024/03/27 06:39:48;;;;;;;8.43;4.93;;;7.40;99.90;;;;;;5077506;28;20195;-73
2024/03/27 06:42:35;;;;;;;9.03;5.07;;;7.60;99.90;;;;;;5077479;28;20201;-73
2024/03/27 06:45:21;;;;;;;9.13;5.27;;;7.60;99.90;;;;;;5077951;28;20516;-73
2024/03/27 06:48:07;;;;;;;8.37;5.00;;;7.70;99.90;;;;;;5063502;28;20189;-73
2024/03/27 06:50:54;;;;;;;7.80;4.70;;;7.80;99.90;;;;;;5078664;28;20219;-73
2024/03/27 06:53:40;;;;;;;8.47;5.10;;;8.00;99.90;;;;;;5063785;28;20241;-73
2024/03/27 06:56:27;;;;;;;7.20;4.33;;;8.10;99.90;;;;;;5077220;28;20272;-73
2024/03/27 06:59:13;;;;;;;10.47;4.10;;;8.20;99.90;;;;;;5077053;28;20211;-73
2024/03/27 07:01:59;;;;;;;9.47;4.43;;;8.40;99.90;;;;;;5077587;28;20205;-74
2024/03/27 07:04:46;;;;;;;6.73;4.03;;;8.50;99.90;;;;;;5077031;28;20704;-74
2024/03/27 07:07:32;;;;;;;7.53;4.00;;;8.70;99.90;;;;;;5063054;28;20637;-74
2024/03/27 07:10:18;;;;;;;6.70;4.00;;;8.90;99.90;;;;;;5077260;28;20209;-73
2024/03/27 07:13:05;;;;;;;9.20;4.17;;;9.00;99.90;;;;;;5091595;28;20193;-73
2024/03/27 07:15:54;;;;;;;8.90;4.20;;;9.10;99.90;;;;;;5077299;28;20224;-73
2024/03/27 07:18:41;;;;;;;6.17;3.80;;;9.20;99.90;;;;;;5076887;28;20189;-73
2024/03/27 07:21:27;;;;;;;6.63;3.93;;;9.30;99.90;;;;;;5077309;28;20210;-72
2024/03/27 07:24:14;;;;;;;9.70;4.20;;;9.40;99.90;;;;;;5078769;28;20201;-73
2024/03/27 07:27:01;;;;;;;5.70;3.60;;;9.50;99.90;;;;;;5077312;28;20189;-73
2024/03/27 07:29:47;;;;;;;9.83;3.80;;;9.50;99.90;;;;;;5076635;28;20203;-73
2024/03/27 07:32:34;;;;;;;8.57;3.60;;;9.50;99.90;;;;;;5065180;28;20216;-73
2024/03/27 07:35:20;;;;;;;5.60;3.40;;;9.60;99.90;;;;;;5076376;28;20213;-74
2024/03/27 07:38:07;;;;;;;6.23;3.50;;;9.70;99.90;;;;;;5076437;28;20225;-74
2024/03/27 07:40:53;;;;;;;7.23;3.77;;;9.80;99.90;;;;;;5078812;28;20201;-73
2024/03/27 07:43:41;;;;;;;8.50;4.10;;;9.90;99.90;;;;;;5063156;28;20185;-76
2024/03/27 07:46:27;;;;;;;8.17;3.70;;;9.90;99.90;;;;;;5076901;28;20186;-76
2024/03/27 07:49:13;;;;;;;4.93;3.50;;;10.00;99.90;;;;;;5078667;28;20213;-76
2024/03/27 07:52:00;;;;;;;6.17;3.43;;;10.10;99.90;;;;;;5076888;28;20197;-74
2024/03/27 07:54:46;;;;;;;6.60;3.43;;;10.20;99.90;;;;;;5076733;28;20213;-75
2024/03/27 07:57:32;;;;;;;8.50;3.73;;;10.20;99.90;;;;;;5077361;28;20604;-74
2024/03/27 08:00:19;;;;;;;6.77;3.60;;;10.30;99.90;;;;;;5076763;28;20196;-74
2024/03/27 08:03:05;;;;;;;7.40;3.80;;;10.30;99.90;;;;;;5076166;28;20667;-75
2024/03/27 08:05:51;;;;;;;7.03;3.37;;;10.40;99.90;;;;;;5076622;28;20216;-75
2024/03/27 08:08:38;;;;;;;6.33;3.60;;;10.50;99.90;;;;;;5076697;28;20201;-76
2024/03/27 08:11:24;;;;;;;5.97;3.50;;;10.70;99.90;;;;;;5076551;28;20186;-76
2024/03/27 08:14:10;;;;;;;6.23;3.23;;;10.80;99.90;;;;;;5061981;28;20209;-74
2024/03/27 08:16:57;;;;;;;6.97;3.67;;;11.00;99.90;;;;;;5076666;28;20189;-75
2024/03/27 08:19:43;;;;;;;5.47;3.30;;;11.20;99.90;;;;;;5077133;28;20206;-74
2024/03/27 08:22:29;;;;;;;6.57;3.63;;;11.40;99.90;;;;;;5080476;28;20661;-74
2024/03/27 08:25:16;;;;;;;5.50;3.17;;;11.50;99.90;;;;;;5066423;28;20201;-75
2024/03/27 08:28:02;;;;;;;6.47;3.23;;;11.60;99.90;;;;;;5080615;28;20215;-74
2024/03/27 08:30:49;;;;;;;5.93;3.10;;;12.00;99.90;;;;;;5081087;28;20208;-73
2024/03/27 08:33:35;;;;;;;8.53;3.23;;;12.60;99.90;;;;;;5080741;28;20239;-75
2024/03/27 08:36:23;;;;;;;6.73;3.47;;;13.30;99.90;;;;;;5079349;28;20193;-74
2024/03/27 08:39:10;;;;;;;6.23;3.10;;;13.80;99.90;;;;;;5081321;28;20197;-74
2024/03/27 08:41:57;;;;;;;8.43;3.10;;;14.00;99.90;;;;;;5080111;28;20211;-73
2024/03/27 08:44:43;;;;;;;5.17;3.30;;;13.80;99.90;;;;;;5079155;28;20196;-73
2024/03/27 08:47:30;;;;;;;6.30;3.27;;;13.90;99.90;;;;;;5079789;28;20673;-74
2024/03/27 08:50:17;;;;;;;4.93;3.17;;;14.10;99.90;;;;;;5067193;28;20211;-74
2024/03/27 08:53:03;;;;;;;6.90;3.53;;;14.10;99.90;;;;;;5067170;28;20663;-73
2024/03/27 08:55:50;;;;;;;7.50;3.33;;;14.30;99.90;;;;;;5079198;28;20228;-74
2024/03/27 08:58:36;;;;;;;5.17;3.13;;;14.70;99.90;;;;;;5079826;28;20199;-74
2024/03/27 09:01:22;;;;;;;5.67;2.90;;;14.90;99.80;;;;;;5079114;28;20242;-73
2024/03/27 09:04:08;;;;;;;5.27;3.20;;;15.20;98.40;;;;;;5079613;28;20252;-73
2024/03/27 09:06:55;;;;;;;6.70;3.20;;;15.30;97.40;;;;;;5067001;28;20668;-72
2024/03/27 09:09:43;;;;;;;5.03;2.90;;;15.40;97.50;;;;;;5078871;28;20200;-71
2024/03/27 09:12:29;;;;;;;6.33;3.40;;;15.70;97.30;;;;;;5078743;28;20204;-74
2024/03/27 09:15:15;;;;;;;7.80;3.40;;;15.80;95.70;;;;;;5078309;28;20229;-72
2024/03/27 09:18:02;;;;;;;5.30;3.13;;;15.90;94.60;;;;;;5079913;28;20203;-73
2024/03/27 09:20:57;;;;;;;5.83;3.33;;;15.80;95.00;;;;;;5092800;28;20219;-72
2024/03/27 09:23:44;;;;;;;5.57;3.30;;;15.90;94.80;;;;;;5079353;28;20221;-77
2024/03/27 09:26:30;;;;;;;6.67;3.30;;;16.00;94.70;;;;;;5078638;28;20197;-78
2024/03/27 09:29:17;;;;;;;4.90;2.87;;;16.10;93.80;;;;;;5079162;28;20196;-78
2024/03/27 09:32:03;;;;;;;6.03;3.37;;;16.20;93.20;;;;;;5077281;28;20633;-77
2024/03/27 09:34:53;;;;;;;9.00;3.70;;;16.10;93.30;;;;;;5079075;28;20227;-77
2024/03/27 09:37:39;;;;;;;5.10;2.90;;;16.30;92.90;;;;;;5077341;28;20239;-77
2024/03/27 09:40:25;;;;;;;6.43;3.00;;;16.20;92.60;;;;;;5079619;28;20242;-77
2024/03/27 09:43:13;;;;;;;6.27;2.90;;;16.70;92.60;;;;;;5078609;28;20306;-78
2024/03/27 09:46:01;;;;;;;7.40;3.00;;;17.20;91.70;;;;;;5079964;28;20198;-77
2024/03/27 09:48:48;;;;;;;7.07;3.40;;;17.40;91.00;;;;;;5077764;28;20190;-78
2024/03/27 09:51:38;;;;;;;6.07;3.00;;;17.80;90.40;;;;;;5078967;28;20194;-79
2024/03/27 09:54:28;;;;;;;5.67;3.03;;;18.30;90.50;;;;;;5078570;28;20217;-78
2024/03/27 09:57:14;;;;;;;4.90;2.80;;;18.20;87.10;;;;;;5078850;28;20189;-79
2024/03/27 10:00:00;;;;;;;4.30;2.73;;;18.40;86.10;;;;;;5079506;28;20198;-78
2024/03/27 10:02:47;;;;;;;5.83;2.70;;;18.30;84.50;;;;;;5064316;28;20193;-78
2024/03/27 10:05:34;;;;;;;4.47;3.03;;;18.60;86.00;;;;;;5079372;28;20210;-78
2024/03/27 10:08:20;;;;;;;6.13;3.30;;;19.40;84.60;;;;;;5078753;28;20710;-78
2024/03/27 10:11:07;;;;;;;5.13;2.80;;;20.30;83.30;;;;;;5079256;28;20204;-78
2024/03/27 10:13:54;;;;;;;4.93;3.10;;;20.50;77.70;;;;;;5079631;28;20189;-78
2024/03/27 10:16:40;;;;;;;5.23;3.00;;;20.70;76.80;;;;;;5079667;28;20195;-78
2024/03/27 10:19:26;;;;;;;5.03;2.80;;;20.60;74.50;;;;;;5078648;28;20213;-77
2024/03/27 10:22:13;;;;;;;5.73;2.70;;;20.60;76.30;;;;;;5079492;28;20653;-77
2024/03/27 10:25:01;;;;;;;3.80;2.60;;;20.30;73.10;;;;;;5078422;28;20193;-77
2024/03/27 10:27:49;;;;;;;5.60;2.80;;;20.60;73.30;;;;;;5079546;28;20195;-77
2024/03/27 10:30:35;;;;;;;5.13;2.60;;;20.70;72.80;;;;;;5078278;28;20654;-77
2024/03/27 10:33:21;;;;;;;10.43;3.20;;;20.90;71.90;;;;;;5077612;28;20205;-77
2024/03/27 10:36:12;;;;;;;6.87;2.70;;;21.50;71.20;;;;;;5077590;28;20247;-77
2024/03/27 10:39:00;;;;;;;6.20;2.90;;;21.40;69.30;;;;;;5078161;28;20186;-77
2024/03/27 10:41:46;;;;;;;4.73;2.90;;;21.50;68.70;;;;;;5077618;28;20200;-77
2024/03/27 10:44:33;;;;;;;5.43;2.90;;;21.80;68.00;;;;;;5076417;28;20201;-77
2024/03/27 10:47:22;;;;;;;5.47;2.90;;;21.80;68.00;;;;;;5079198;28;20277;-78
2024/03/27 10:50:09;;;;;;;8.17;3.20;;;22.00;67.10;;;;;;5063295;28;20259;-78
2024/03/27 10:52:59;;;;;;;7.70;3.10;;;22.30;65.70;;;;;;5078490;28;20193;-77
2024/03/27 10:55:45;;;;;;;5.07;2.80;;;22.10;65.70;;;;;;5077091;28;20217;-77
2024/03/27 10:58:32;;;;;;;7.87;3.03;;;21.90;66.50;;;;;;5077791;28;20243;-77
2024/03/27 11:01:20;;;;;;;9.27;2.80;;;22.20;65.00;;;;;;5077161;28;20189;-77
2024/03/27 11:04:08;;;;;;;8.27;3.03;;;22.30;64.30;;;;;;5090333;28;20213;-76
2024/03/27 11:06:57;;;;;;;4.67;2.90;;;22.40;63.90;;;;;;5077707;28;20443;-78
2024/03/27 11:09:49;;;;;;;4.17;2.73;;;22.60;64.20;;;;;;5064885;28;20201;-76
2024/03/27 11:12:36;;;;;;;6.63;3.03;;;22.40;63.50;;;;;;5063809;28;20204;-77
2024/03/27 11:15:23;;;;;;;4.93;2.70;;;22.40;64.70;;;;;;5076894;28;20221;-76
2024/03/27 11:18:15;;;;;;;4.23;2.50;;;22.20;63.80;;;;;;5063585;28;20194;-76
2024/03/27 11:21:02;;;;;;;6.67;2.83;;;22.80;64.60;;;;;;5077425;28;20602;-78
2024/03/27 11:23:52;;;;;;;5.20;2.77;;;23.00;61.80;;;;;;5062821;28;20190;-78
2024/03/27 11:26:39;;;;;;;6.70;2.80;;;22.00;63.30;;;;;;5077209;28;20204;-78
2024/03/27 11:29:26;;;;;;;5.87;2.93;;;22.10;62.90;;;;;;5077626;28;20193;-77
2024/03/27 11:32:15;;;;;;;5.57;2.73;;;21.80;63.30;;;;;;5063320;28;20200;-76
2024/03/27 11:35:02;;;;;;;4.27;2.80;;;22.00;63.70;;;;;;5076627;28;20427;-76
2024/03/27 11:38:11;;;;;;;4.47;2.70;;;22.10;62.90;;;;;;5061638;28;20236;-77
2024/03/27 11:40:57;;;;;;;7.20;3.07;;;22.80;62.80;;;;;;5078161;28;20195;-77
2024/03/27 11:43:43;;;;;;;8.10;3.03;;;22.90;63.30;;;;;;5076918;28;20182;-78
2024/03/27 11:46:30;;;;;;;5.50;2.80;;;22.80;60.70;;;;;;5076933;28;20189;-76
2024/03/27 11:49:18;;;;;;;6.43;2.80;;;23.30;60.80;;;;;;5076919;28;20287;-76
2024/03/27 11:52:05;;;;;;;7.10;2.90;;;23.80;60.20;;;;;;5076508;28;20199;-77
2024/03/27 11:54:58;;;;;;;5.70;3.00;;;24.20;58.90;;;;;;5061062;28;20213;-77
2024/03/27 11:57:44;;;;;;;6.55;3.00;;;25.10;58.60;;;;;;5076081;28;20185;-78
2024/03/27 12:00:30;;;;;;;6.65;2.90;;;25.80;55.80;;;;;;5077246;28;20238;-77
2024/03/27 12:03:17;;;;;;;6.45;2.88;;;25.40;55.50;;;;;;5076826;28;20237;-79
2024/03/27 12:06:04;;;;;;;6.15;3.00;;;25.60;55.40;;;;;;5077085;28;20186;-78
2024/03/27 12:08:51;;;;;;;5.15;3.08;;;26.10;54.60;;;;;;5062788;28;20457;-78
2024/03/27 12:11:39;;;;;;;5.28;3.08;;;26.50;54.10;;;;;;5076557;28;20653;-78
2024/03/27 12:14:26;;;;;;;4.22;2.70;;;26.50;53.90;;;;;;5076028;28;20224;-78
2024/03/27 12:17:12;;;;;;;5.90;3.00;;;26.10;54.50;;;;;;5076437;28;20207;-78
2024/03/27 12:20:03;;;;;;;5.63;2.80;;;26.60;54.50;;;;;;5076463;28;20677;-78
2024/03/27 12:22:50;;;;;;;4.90;2.72;;;26.80;54.00;;;;;;5076034;28;20243;-77
2024/03/27 12:25:36;;;;;;;5.72;2.70;;;27.00;53.80;;;;;;5077306;28;20189;-77
2024/03/27 12:28:22;;;;;;;8.25;3.10;;;26.60;53.40;;;;;;5077332;28;20197;-77
2024/03/27 12:31:10;;;;;;;4.30;2.63;;;25.80;54.40;;;;;;5062155;28;20199;-77
2024/03/27 12:33:57;;;;;;;6.75;2.63;;;26.00;54.80;;;;;;5061168;28;20209;-78
2024/03/27 12:36:45;;;;;;;5.25;2.60;;;26.50;54.10;;;;;;5060648;28;20229;-76
2024/03/27 12:39:31;;;;;;;5.47;2.47;;;26.90;54.30;;;;;;5076371;28;20201;-76
2024/03/27 12:42:18;;;;;;;7.90;2.75;;;27.20;52.80;;;;;;5062582;28;20186;-74
2024/03/27 12:45:04;;;;;;;4.75;2.78;;;27.50;52.50;;;;;;5075852;28;20193;-75
2024/03/27 12:47:51;;;;;;;5.22;2.70;;;27.40;51.90;;;;;;5076340;28;20204;-76
2024/03/27 12:50:37;;;;;;;6.07;2.55;;;27.50;52.70;;;;;;5077384;28;20231;-78
2024/03/27 12:53:24;;;;;;;5.47;2.78;;;27.00;51.80;;;;;;5074500;28;20193;-77
2024/03/27 12:56:10;;;;;;;3.92;2.55;;;27.00;52.80;;;;;;5076139;28;20239;-75
2024/03/27 12:58:56;;;;;;;4.13;2.55;;;27.10;52.10;;;;;;5075987;28;20186;-75
2024/03/27 13:01:45;;;;;;;6.93;2.60;;;27.50;52.50;;;;;;5075466;28;20194;-79
2024/03/27 13:08:16;;;;;;;6.10;2.97;;;27.00;52.20;;;;;;5078783;28;20661;-78
2024/03/27 13:11:03;;;;;;;5.38;2.63;;;26.40;53.20;;;;;;5066588;28;20200;-78
2024/03/27 13:13:49;;;;;;;4.68;2.75;;;25.90;54.30;;;;;;5079133;28;20193;-78
2024/03/27 13:16:35;;;;;;;6.13;3.10;;;25.90;54.10;;;;;;5078506;28;20188;-78
2024/03/27 13:19:22;;;;;;;4.95;2.72;;;25.30;54.40;;;;;;5079171;28;20213;-78
2024/03/27 13:22:08;;;;;;;5.35;2.83;;;24.90;55.90;;;;;;5079690;28;20185;-78
2024/03/27 13:24:55;;;;;;;10.85;2.78;;;24.80;55.30;;;;;;5079311;28;20189;-77
2024/03/27 13:27:41;;;;;;;4.88;3.03;;;24.50;55.90;;;;;;5078780;28;20195;-78
2024/03/27 13:30:27;;;;;;;6.60;2.63;;;24.70;55.50;;;;;;5065674;28;20192;-78
2024/03/27 13:33:14;;;;;;;4.95;2.70;;;24.20;55.70;;;;;;5080458;28;20190;-78
2024/03/27 13:36:01;;;;;;;7.73;2.83;;;23.60;56.70;;;;;;5079195;28;20217;-78
2024/03/27 13:38:47;;;;;;;9.23;2.90;;;23.00;57.80;;;;;;5059700;28;20194;-78
2024/03/27 13:41:33;;;;;;;5.85;2.65;;;22.60;58.50;;;;;;5058717;28;20272;-77
2024/03/27 13:44:20;;;;;;;7.37;2.90;;;22.80;59.10;;;;;;5059107;28;20202;-78
2024/03/27 13:47:07;;;;;;;7.67;3.00;;;22.30;59.40;;;;;;5059587;28;20629;-78
2024/03/27 13:49:53;;;;;;;8.70;3.00;;;22.00;60.80;;;;;;5058351;28;20214;-78
2024/03/27 13:52:39;;;;;;;7.53;3.07;;;22.30;61.70;;;;;;5059587;28;20190;-77
2024/03/27 13:55:26;;;;;;;5.73;2.77;;;22.10;61.80;;;;;;5047369;28;20225;-77
2024/03/27 13:58:12;;;;;;;5.33;3.07;;;22.00;61.80;;;;;;5058856;28;20201;-78
2024/03/27 14:00:58;;;;;;;5.23;3.17;;;22.40;63.10;;;;;;5032452;28;20643;-78
2024/03/27 14:03:45;;;;;;;5.63;3.20;;;22.60;61.60;;;;;;5059881;28;20205;-78
2024/03/27 14:06:35;;;;;;;7.77;3.00;;;22.80;61.90;;;;;;5058109;28;20209;-78
2024/03/27 14:09:22;;;;;;;6.67;3.30;;;23.10;61.10;;;;;;5059834;28;20202;-78
2024/03/27 14:12:09;;;;;;;6.70;3.20;;;22.90;61.60;;;;;;5044790;28;20186;-78
2024/03/27 14:14:56;;;;;;;9.05;3.47;;;23.20;61.10;;;;;;5045303;28;20673;-78
2024/03/27 14:17:42;;;;;;;9.37;3.47;;;23.90;60.90;;;;;;5057999;28;20194;-78
2024/03/27 14:20:29;;;;;;;7.47;3.10;;;23.60;61.10;;;;;;5044959;28;20217;-78
2024/03/27 14:23:15;;;;;;;11.48;3.35;;;23.50;61.60;;;;;;5057612;28;20186;-78
2024/03/27 14:26:01;;;;;;;7.50;3.03;;;23.40;62.10;;;;;;5044451;28;20200;-78
2024/03/27 14:28:47;;;;;;;6.33;3.00;;;23.40;62.00;;;;;;5059112;28;20598;-78
2024/03/27 14:31:34;;;;;;;6.03;3.07;;;22.80;63.10;;;;;;5057765;28;20654;-78
2024/03/27 14:34:20;;;;;;;7.77;3.30;;;22.80;63.80;;;;;;5057969;28;20214;-78